createdAt,value
2018-01-08T00:01:22.211Z,-2.41
2018-01-08T00:02:49.302Z,-2.39
2018-01-08T00:04:16.205Z,-2.41
2018-01-08T00:05:42.583Z,-2.43
2018-01-08T00:07:09.756Z,-2.43
2018-01-08T00:08:37.722Z,-2.40
2018-01-08T00:10:04.875Z,-2.31
2018-01-08T00:11:32.147Z,-2.26
2018-01-08T00:12:58.193Z,-2.25
2018-01-08T00:14:26.227Z,-2.19
2018-01-08T00:15:53.159Z,-2.10
2018-01-08T00:17:20.002Z,-2.01
2018-01-08T00:18:46.986Z,-1.94
2018-01-08T00:20:13.069Z,-1.88
2018-01-08T00:21:41.358Z,-1.82
2018-01-08T00:23:08.233Z,-1.79
2018-01-08T00:24:35.206Z,-1.84
2018-01-08T00:26:01.948Z,-1.84
2018-01-08T00:27:28.808Z,-1.82
2018-01-08T00:28:56.111Z,-1.78
2018-01-08T00:30:23.328Z,-1.71
2018-01-08T00:31:49.230Z,-1.65
2018-01-08T00:33:17.107Z,-1.59
2018-01-08T00:34:44.174Z,-1.53
2018-01-08T00:36:11.386Z,-1.47
2018-01-08T00:37:38.379Z,-1.43
2018-01-08T00:39:05.351Z,-1.43
2018-01-08T00:40:32.184Z,-1.44
2018-01-08T00:41:59.414Z,-1.50
2018-01-08T00:43:25.232Z,-1.65
2018-01-08T00:44:53.268Z,-1.84
2018-01-08T00:46:20.503Z,-1.97
2018-01-08T00:47:47.421Z,-1.97
2018-01-08T00:49:14.790Z,-1.94
2018-01-08T00:50:41.154Z,-1.88
2018-01-08T00:52:08.347Z,-1.91
2018-01-08T00:53:35.657Z,-1.96
2018-01-08T00:55:03.552Z,-2.02
2018-01-08T00:56:29.838Z,-2.17
2018-01-08T00:57:57.887Z,-2.14
2018-01-08T00:59:24.091Z,-2.09
2018-01-08T01:00:51.008Z,-2.00
2018-01-08T01:02:18.980Z,-1.91
2018-01-08T01:03:46.033Z,-1.83
2018-01-08T01:05:13.186Z,-1.77
2018-01-08T01:06:40.290Z,-1.72
2018-01-08T01:08:07.149Z,-1.67
2018-01-08T01:09:34.276Z,-1.64
2018-01-08T01:11:00.353Z,-1.64
2018-01-08T01:12:27.346Z,-1.63
2018-01-08T01:13:55.485Z,-1.64
2018-01-08T01:15:22.473Z,-1.71
2018-01-08T01:16:48.520Z,-1.78
2018-01-08T01:18:16.485Z,-1.81
2018-01-08T01:19:43.517Z,-1.85
2018-01-08T01:21:10.745Z,-1.87
2018-01-08T01:22:37.759Z,-1.91
2018-01-08T01:24:03.945Z,-1.95
2018-01-08T01:25:30.867Z,-2.04
2018-01-08T01:26:59.068Z,-2.17
2018-01-08T01:28:25.267Z,-2.28
2018-01-08T01:29:52.943Z,-2.38
2018-01-08T01:31:19.910Z,-2.41
2018-01-08T01:32:46.841Z,-2.39
2018-01-08T01:34:12.875Z,-2.36
2018-01-08T01:35:40.046Z,-2.35
2018-01-08T01:37:08.064Z,-2.41
2018-01-08T01:38:34.006Z,-2.44
2018-01-08T01:40:01.171Z,-2.45
2018-01-08T01:41:29.259Z,-2.45
2018-01-08T01:42:56.360Z,-2.53
2018-01-08T01:44:22.282Z,-2.60
2018-01-08T01:45:50.175Z,-2.67
2018-01-08T01:47:16.198Z,-2.68
2018-01-08T01:48:44.348Z,-2.65
2018-01-08T01:50:11.221Z,-2.60
2018-01-08T01:51:38.506Z,-2.57
2018-01-08T01:53:05.300Z,-2.52
2018-01-08T01:54:32.449Z,-2.49
2018-01-08T01:55:59.134Z,-2.46
2018-01-08T01:57:26.214Z,-2.50
2018-01-08T01:58:53.237Z,-2.57
2018-01-08T02:00:20.183Z,-2.63
2018-01-08T02:01:46.858Z,-2.60
2018-01-08T02:03:13.826Z,-2.53
2018-01-08T02:04:40.966Z,-2.49
2018-01-08T02:06:09.988Z,-2.44
2018-01-08T02:07:37.122Z,-2.46
2018-01-08T02:09:02.093Z,-2.45
2018-01-08T02:10:29.097Z,-2.43
2018-01-08T02:11:56.328Z,-2.43
2018-01-08T02:13:23.140Z,-2.48
2018-01-08T02:14:48.947Z,-2.51
2018-01-08T02:16:15.747Z,-2.52
2018-01-08T02:17:43.696Z,-2.51
2018-01-08T02:19:09.977Z,-2.47
2018-01-08T02:20:37.077Z,-2.45
2018-01-08T02:22:05.004Z,-2.45
2018-01-08T02:23:32.114Z,-2.49
2018-01-08T02:24:59.124Z,-2.46
2018-01-08T02:26:26.277Z,-2.41
2018-01-08T02:27:52.539Z,-2.38
2018-01-08T02:29:20.427Z,-2.37
2018-01-08T02:30:46.482Z,-2.34
2018-01-08T02:32:13.462Z,-2.32
2018-01-08T02:33:41.714Z,-2.32
2018-01-08T02:35:07.834Z,-2.34
2018-01-08T02:36:34.915Z,-2.33
2018-01-08T02:38:02.813Z,-2.29
2018-01-08T02:39:28.725Z,-2.27
2018-01-08T02:40:56.633Z,-2.25
2018-01-08T02:42:23.738Z,-2.22
2018-01-08T02:43:49.890Z,-2.19
2018-01-08T02:45:17.903Z,-2.17
2018-01-08T02:46:44.836Z,-2.18
2018-01-08T02:48:11.895Z,-2.19
2018-01-08T02:49:39.025Z,-2.20
2018-01-08T02:51:05.996Z,-2.16
2018-01-08T02:52:33.238Z,-2.12
2018-01-08T02:54:00.266Z,-2.09
2018-01-08T02:55:27.011Z,-2.12
2018-01-08T02:56:54.181Z,-2.15
2018-01-08T02:58:21.237Z,-2.18
2018-01-08T02:59:47.438Z,-2.22
2018-01-08T03:01:15.142Z,-2.27
2018-01-08T03:02:42.308Z,-2.27
2018-01-08T03:04:09.168Z,-2.28
2018-01-08T03:05:36.199Z,-2.31
2018-01-08T03:07:03.083Z,-2.36
2018-01-08T03:08:30.140Z,-2.38
2018-01-08T03:09:57.284Z,-2.40
2018-01-08T03:11:24.233Z,-2.47
2018-01-08T03:12:50.187Z,-2.53
2018-01-08T03:14:17.016Z,-2.60
2018-01-08T03:15:44.893Z,-2.62
2018-01-08T03:17:12.150Z,-2.61
2018-01-08T03:18:38.271Z,-2.59
2018-01-08T03:20:06.138Z,-2.63
2018-01-08T03:21:32.229Z,-2.62
2018-01-08T03:22:59.249Z,-2.64
2018-01-08T03:24:27.453Z,-2.62
2018-01-08T03:25:54.400Z,-2.60
2018-01-08T03:27:21.107Z,-2.62
2018-01-08T03:28:48.148Z,-2.72
2018-01-08T03:30:14.891Z,-2.84
2018-01-08T03:31:41.019Z,-2.96
2018-01-08T03:33:09.091Z,-3.07
2018-01-08T03:34:35.767Z,-3.15
2018-01-08T03:36:02.564Z,-3.12
2018-01-08T03:37:29.318Z,-3.04
2018-01-08T03:38:56.418Z,-3.06
2018-01-08T03:40:22.343Z,-3.08
2018-01-08T03:41:50.483Z,-3.10
2018-01-08T03:43:16.394Z,-3.11
2018-01-08T03:44:44.279Z,-3.12
2018-01-08T03:46:11.195Z,-3.16
2018-01-08T03:47:38.292Z,-3.19
2018-01-08T03:49:05.214Z,-3.21
2018-01-08T03:50:32.308Z,-3.23
2018-01-08T03:51:59.384Z,-3.23
2018-01-08T03:53:26.340Z,-3.25
2018-01-08T03:54:52.377Z,-3.26
2018-01-08T03:56:20.243Z,-3.25
2018-01-08T03:57:47.135Z,-3.25
2018-01-08T03:59:14.423Z,-3.26
2018-01-08T04:00:40.215Z,-3.26
2018-01-08T04:02:07.123Z,-3.24
2018-01-08T04:03:34.328Z,-3.22
2018-01-08T04:05:01.999Z,-3.23
2018-01-08T04:06:29.295Z,-3.25
2018-01-08T04:07:56.515Z,-3.26
2018-01-08T04:09:23.305Z,-3.28
2018-01-08T04:10:50.165Z,-3.31
2018-01-08T04:12:16.945Z,-3.35
2018-01-08T04:13:44.084Z,-3.39
2018-01-08T04:15:10.261Z,-3.45
2018-01-08T04:16:38.286Z,-3.45
2018-01-08T04:18:05.514Z,-3.37
2018-01-08T04:19:32.428Z,-3.29
2018-01-08T04:20:58.408Z,-3.28
2018-01-08T04:22:25.416Z,-3.29
2018-01-08T04:23:52.247Z,-3.30
2018-01-08T04:25:19.961Z,-3.27
2018-01-08T04:26:46.838Z,-3.26
2018-01-08T04:28:12.953Z,-3.26
2018-01-08T04:29:40.689Z,-3.26
2018-01-08T04:31:06.770Z,-3.27
2018-01-08T04:32:34.755Z,-3.29
2018-01-08T04:34:00.669Z,-3.28
2018-01-08T04:35:28.351Z,-3.30
2018-01-08T04:36:55.568Z,-3.30
2018-01-08T04:38:21.397Z,-3.30
2018-01-08T04:39:49.244Z,-3.33
2018-01-08T04:41:16.308Z,-3.35
2018-01-08T04:42:42.342Z,-3.36
2018-01-08T04:44:10.343Z,-3.37
2018-01-08T04:45:37.401Z,-3.38
2018-01-08T04:47:03.129Z,-3.37
2018-01-08T04:48:30.156Z,-3.35
2018-01-08T04:49:58.066Z,-3.27
2018-01-08T04:51:24.205Z,-3.16
2018-01-08T04:52:52.069Z,-3.08
2018-01-08T04:54:19.055Z,-2.99
2018-01-08T04:55:45.032Z,-2.91
2018-01-08T04:57:11.982Z,-2.86
2018-01-08T04:58:40.129Z,-2.80
2018-01-08T05:00:06.969Z,-2.75
2018-01-08T05:01:33.847Z,-2.68
2018-01-08T05:03:00.953Z,-2.62
2018-01-08T05:04:27.869Z,-2.56
2018-01-08T05:05:53.548Z,-2.50
2018-01-08T05:07:20.547Z,-2.49
2018-01-08T05:08:47.584Z,-2.52
2018-01-08T05:10:15.619Z,-2.59
2018-01-08T05:11:42.764Z,-2.60
2018-01-08T05:13:09.654Z,-2.62
2018-01-08T05:14:35.738Z,-2.74
2018-01-08T05:16:03.583Z,-2.79
2018-01-08T05:17:30.684Z,-2.77
2018-01-08T05:18:56.834Z,-2.76
2018-01-08T05:20:24.592Z,-2.74
2018-01-08T05:21:51.560Z,-2.71
2018-01-08T05:23:18.661Z,-2.86
2018-01-08T05:24:45.785Z,-3.08
2018-01-08T05:26:11.683Z,-3.16
2018-01-08T05:27:38.882Z,-3.11
2018-01-08T05:29:06.131Z,-3.07
2018-01-08T05:30:34.839Z,-3.07
2018-01-08T05:32:00.969Z,-3.02
2018-01-08T05:33:27.957Z,-2.99
2018-01-08T05:34:54.899Z,-2.96
2018-01-08T05:36:21.726Z,-2.92
2018-01-08T05:37:48.603Z,-2.88
2018-01-08T05:39:15.510Z,-2.84
2018-01-08T05:40:42.614Z,-2.81
2018-01-08T05:42:08.775Z,-2.78
2018-01-08T05:43:36.922Z,-2.76
2018-01-08T05:45:04.016Z,-2.77
2018-01-08T05:46:29.984Z,-2.76
2018-01-08T05:47:58.062Z,-2.73
2018-01-08T05:49:24.894Z,-2.70
2018-01-08T05:50:52.060Z,-2.70
2018-01-08T05:52:18.846Z,-2.69
2018-01-08T05:53:45.737Z,-2.68
2018-01-08T05:55:12.131Z,-2.66
2018-01-08T05:56:39.952Z,-2.62
2018-01-08T05:58:06.936Z,-2.58
2018-01-08T05:59:33.779Z,-2.56
2018-01-08T06:01:00.670Z,-2.54
2018-01-08T06:02:26.580Z,-2.52
2018-01-08T06:03:54.510Z,-2.50
2018-01-08T06:05:20.217Z,-2.50
2018-01-08T06:06:48.171Z,-2.52
2018-01-08T06:08:14.983Z,-2.55
2018-01-08T06:09:42.024Z,-2.57
2018-01-08T06:11:11.254Z,-2.60
2018-01-08T06:12:35.215Z,-2.62
2018-01-08T06:14:02.971Z,-2.65
2018-01-08T06:15:29.927Z,-2.63
2018-01-08T06:16:56.003Z,-2.60
2018-01-08T06:18:23.688Z,-2.61
2018-01-08T06:19:50.837Z,-2.62
2018-01-08T06:21:16.877Z,-2.66
2018-01-08T06:22:44.870Z,-2.84
2018-01-08T06:24:10.965Z,-3.08
2018-01-08T06:25:38.786Z,-3.22
2018-01-08T06:27:04.829Z,-3.30
2018-01-08T06:28:32.656Z,-3.41
2018-01-08T06:29:58.685Z,-3.44
2018-01-08T06:31:26.790Z,-3.45
2018-01-08T06:32:52.634Z,-3.46
2018-01-08T06:34:20.578Z,-3.46
2018-01-08T06:35:47.638Z,-3.39
2018-01-08T06:37:13.724Z,-3.33
2018-01-08T06:38:41.737Z,-3.26
2018-01-08T06:40:08.856Z,-3.22
2018-01-08T06:41:35.520Z,-3.18
2018-01-08T06:43:01.649Z,-3.15
2018-01-08T06:44:29.822Z,-3.11
2018-01-08T06:45:56.760Z,-3.07
2018-01-08T06:47:23.823Z,-3.03
2018-01-08T06:48:50.658Z,-3.00
2018-01-08T06:50:17.642Z,-2.96
2018-01-08T06:51:44.734Z,-2.98
2018-01-08T06:53:11.026Z,-3.02
2018-01-08T06:54:39.048Z,-3.01
2018-01-08T06:56:05.886Z,-3.01
2018-01-08T06:57:32.784Z,-3.00
2018-01-08T06:58:59.514Z,-2.98
2018-01-08T07:00:25.633Z,-2.95
2018-01-08T07:01:53.732Z,-2.99
2018-01-08T07:03:20.605Z,-2.99
2018-01-08T07:04:47.624Z,-2.96
2018-01-08T07:06:13.518Z,-2.95
2018-01-08T07:07:40.546Z,-2.93
2018-01-08T07:09:08.530Z,-2.92
2018-01-08T07:10:34.654Z,-2.67
2018-01-08T07:12:01.438Z,-2.87
2018-01-08T07:13:29.313Z,-2.87
2018-01-08T07:14:56.411Z,-2.87
2018-01-08T07:16:22.591Z,-2.87
2018-01-08T07:17:50.613Z,-2.85
2018-01-08T07:19:16.629Z,-2.82
2018-01-08T07:20:44.708Z,-2.81
2018-01-08T07:22:11.725Z,-2.81
2018-01-08T07:23:38.848Z,-2.77
2018-01-08T07:25:06.056Z,-2.70
2018-01-08T07:26:33.064Z,-2.64
2018-01-08T07:28:00.114Z,-2.65
2018-01-08T07:29:27.072Z,-2.65
2018-01-08T07:30:54.163Z,-2.66
2018-01-08T07:32:21.205Z,-2.68
2018-01-08T07:33:46.948Z,-2.69
2018-01-08T07:35:14.716Z,-2.69
2018-01-08T07:36:42.109Z,-2.71
2018-01-08T07:38:08.999Z,-2.75
2018-01-08T07:39:38.112Z,-2.87
2018-01-08T07:41:02.262Z,-3.03
2018-01-08T07:42:30.229Z,-3.20
2018-01-08T07:43:56.389Z,-3.33
2018-01-08T07:45:24.015Z,-3.32
2018-01-08T07:46:50.094Z,-3.27
2018-01-08T07:48:16.880Z,-3.22
2018-01-08T07:49:44.758Z,-3.18
2018-01-08T07:52:38.809Z,-3.05
2018-01-08T07:54:05.873Z,-3.01
2018-01-08T07:55:32.661Z,-2.96
2018-01-08T07:56:59.938Z,-2.93
2018-01-08T07:58:28.970Z,-2.94
2018-01-08T07:59:53.169Z,-3.00
2018-01-08T08:01:20.243Z,-3.05
2018-01-08T08:02:47.122Z,-3.13
2018-01-08T08:04:15.156Z,-3.14
2018-01-08T08:05:42.164Z,-3.08
2018-01-08T08:07:08.142Z,-3.02
2018-01-08T08:08:36.352Z,-2.95
2018-01-08T08:10:02.495Z,-2.88
2018-01-08T08:11:29.393Z,-2.83
2018-01-08T08:12:57.368Z,-2.79
2018-01-08T08:14:24.572Z,-2.78
2018-01-08T08:15:51.354Z,-2.76
2018-01-08T08:17:18.117Z,-2.74
2018-01-08T08:18:44.864Z,-2.70
2018-01-08T08:20:12.187Z,-2.75
2018-01-08T08:21:37.816Z,-2.86
2018-01-08T08:23:05.852Z,-2.93
2018-01-08T08:24:31.806Z,-3.00
2018-01-08T08:25:59.805Z,-3.12
2018-01-08T08:27:26.922Z,-3.19
2018-01-08T08:28:53.947Z,-3.28
2018-01-08T08:30:19.971Z,-3.35
2018-01-08T08:31:46.962Z,-3.38
2018-01-08T08:33:14.982Z,-3.34
2018-01-08T08:34:40.787Z,-3.34
2018-01-08T08:36:08.463Z,-3.32
2018-01-08T08:37:34.388Z,-3.29
2018-01-08T08:39:02.503Z,-3.23
2018-01-08T08:40:28.527Z,-3.22
2018-01-08T08:41:56.557Z,-3.24
2018-01-08T08:43:23.499Z,-3.24
2018-01-08T08:44:49.721Z,-3.17
2018-01-08T08:46:17.693Z,-3.13
2018-01-08T08:47:44.437Z,-3.13
2018-01-08T08:49:10.907Z,-3.13
2018-01-08T08:50:37.825Z,-3.04
2018-01-08T08:52:05.842Z,-2.97
2018-01-08T08:53:32.830Z,-2.90
2018-01-08T08:54:58.590Z,-2.88
2018-01-08T08:56:25.476Z,-2.87
2018-01-08T08:57:52.449Z,-2.87
2018-01-08T08:59:20.401Z,-2.88
2018-01-08T09:00:47.196Z,-2.90
2018-01-08T09:02:12.974Z,-2.90
2018-01-08T09:03:40.020Z,-2.90
2018-01-08T09:05:07.109Z,-2.89
2018-01-08T09:06:35.371Z,-2.88
2018-01-08T09:08:01.934Z,-2.87
2018-01-08T09:09:28.174Z,-2.85
2018-01-08T09:10:55.172Z,-2.83
2018-01-08T09:12:22.916Z,-2.80
2018-01-08T09:13:48.798Z,-2.79
2018-01-08T09:15:17.045Z,-2.77
2018-01-08T09:16:44.104Z,-2.75
2018-01-08T09:18:11.147Z,-2.74
2018-01-08T09:19:37.418Z,-2.71
2018-01-08T09:21:05.224Z,-2.68
2018-01-08T09:22:31.333Z,-2.66
2018-01-08T09:23:58.237Z,-2.63
2018-01-08T09:25:26.236Z,-2.60
2018-01-08T09:26:53.141Z,-2.58
2018-01-08T09:28:19.855Z,-2.56
2018-01-08T09:29:45.846Z,-2.52
2018-01-08T09:31:12.726Z,-2.50
2018-01-08T09:32:39.967Z,-2.48
2018-01-08T09:34:07.807Z,-2.45
2018-01-08T09:35:37.092Z,-2.41
2018-01-08T09:37:02.296Z,-2.39
2018-01-08T09:38:28.197Z,-2.36
2018-01-08T09:39:55.216Z,-2.33
2018-01-08T09:41:23.170Z,-2.31
2018-01-08T09:42:49.057Z,-2.29
2018-01-08T09:44:17.193Z,-2.26
2018-01-08T09:45:44.295Z,-2.23
2018-01-08T09:47:11.441Z,-2.20
2018-01-08T09:48:38.266Z,-2.18
2018-01-08T09:50:05.044Z,-2.16
2018-01-08T09:51:31.090Z,-2.13
2018-01-08T09:52:59.280Z,-2.10
2018-01-08T09:54:25.282Z,-2.07
2018-01-08T09:55:53.343Z,-2.03
2018-01-08T09:57:19.448Z,-2.02
2018-01-08T09:58:47.180Z,-1.99
2018-01-08T10:00:14.344Z,-1.95
2018-01-08T10:01:41.352Z,-1.91
2018-01-08T10:03:07.275Z,-1.89
2018-01-08T10:04:35.317Z,-1.85
2018-01-08T10:06:01.396Z,-1.83
2018-01-08T10:07:28.430Z,-1.80
2018-01-08T10:08:55.435Z,-1.77
2018-01-08T10:10:23.429Z,-1.74
2018-01-08T10:11:49.534Z,-1.69
2018-01-08T10:13:17.769Z,-1.66
2018-01-08T10:14:43.746Z,-1.63
2018-01-08T10:16:11.554Z,-1.58
2018-01-08T10:17:38.646Z,-1.55
2018-01-08T10:19:04.666Z,-1.51
2018-01-08T10:20:31.642Z,-1.49
2018-01-08T10:21:59.599Z,-1.45
2018-01-08T10:23:25.725Z,-1.40
2018-01-08T10:24:53.758Z,-1.36
2018-01-08T10:26:20.615Z,-1.33
2018-01-08T10:27:47.552Z,-1.29
2018-01-08T10:29:13.641Z,-1.26
2018-01-08T10:30:41.720Z,-1.21
2018-01-08T10:32:08.028Z,-1.18
2018-01-08T10:33:36.172Z,-1.16
2018-01-08T10:35:02.032Z,-1.12
2018-01-08T10:36:30.109Z,-1.10
2018-01-08T10:37:56.384Z,-1.08
2018-01-08T10:39:24.374Z,-1.05
2018-01-08T10:40:50.440Z,-1.02
2018-01-08T10:42:18.234Z,-1.00
2018-01-08T10:43:45.412Z,-0.97
2018-01-08T10:45:12.514Z,-0.94
2018-01-08T10:46:39.941Z,-0.90
2018-01-08T10:48:05.958Z,-0.86
2018-01-08T10:49:36.161Z,-0.82
2018-01-08T10:51:00.195Z,-0.77
2018-01-08T10:52:27.667Z,-0.71
2018-01-08T10:53:54.962Z,-0.66
2018-01-08T10:55:22.182Z,-0.59
2018-01-08T10:56:50.177Z,-0.53
2018-01-08T10:58:16.508Z,-0.50
2018-01-08T10:59:43.488Z,-0.48
2018-01-08T11:01:10.543Z,-0.43
2018-01-08T11:02:37.602Z,-0.39
2018-01-08T11:04:05.584Z,-0.36
2018-01-08T11:05:32.660Z,-0.31
2018-01-08T11:06:59.963Z,-0.25
2018-01-08T11:08:26.166Z,-0.21
2018-01-08T11:09:54.203Z,-0.17
2018-01-08T11:11:20.018Z,-0.12
2018-01-08T11:12:47.004Z,-0.05
2018-01-08T11:14:14.211Z,-0.02
2018-01-08T11:15:42.335Z,-0.01
2018-01-08T11:17:08.837Z,0.00
2018-01-08T11:18:35.911Z,0.02
2018-01-08T11:20:03.947Z,0.02
2018-01-08T11:21:30.902Z,0.03
2018-01-08T11:22:57.893Z,0.05
2018-01-08T11:24:25.038Z,0.05
2018-01-08T11:25:52.198Z,0.07
2018-01-08T11:27:18.367Z,0.09
2018-01-08T11:28:45.456Z,0.10
2018-01-08T11:30:13.418Z,0.09
2018-01-08T11:31:42.453Z,0.10
2018-01-08T11:33:07.982Z,0.11
2018-01-08T11:34:33.395Z,0.15
2018-01-08T11:36:01.404Z,0.18
2018-01-08T11:37:28.362Z,0.19
2018-01-08T11:38:55.526Z,0.21
2018-01-08T11:40:21.520Z,0.25
2018-01-08T11:41:49.278Z,0.29
2018-01-08T11:43:15.550Z,0.34
2018-01-08T11:44:48.644Z,0.40
2018-01-08T11:46:09.851Z,0.48
2018-01-08T11:47:37.830Z,0.52
2018-01-08T11:49:05.180Z,0.59
2018-01-08T11:50:32.334Z,0.64
2018-01-08T11:51:59.372Z,0.68
2018-01-08T11:53:26.453Z,0.73
2018-01-08T11:54:53.299Z,0.77
2018-01-08T11:56:20.224Z,0.82
2018-01-08T11:57:47.422Z,0.86
2018-01-08T11:59:14.722Z,0.87
2018-01-08T12:00:41.239Z,0.88
2018-01-08T12:02:09.000Z,0.88
2018-01-08T12:03:35.290Z,0.87
2018-01-08T12:05:03.247Z,0.87
2018-01-08T12:06:29.282Z,0.88
2018-01-08T12:07:57.682Z,0.88
2018-01-08T12:09:24.404Z,0.88
2018-01-08T12:10:50.759Z,0.92
2018-01-08T12:12:17.784Z,0.91
2018-01-08T12:13:45.705Z,0.90
2018-01-08T12:15:11.906Z,0.90
2018-01-08T12:16:41.744Z,0.89
2018-01-08T12:18:06.151Z,0.89
2018-01-08T12:19:34.212Z,0.89
2018-01-08T12:21:01.527Z,0.89
2018-01-08T12:22:27.641Z,0.88
2018-01-08T12:23:54.721Z,0.90
2018-01-08T12:25:22.634Z,0.91
2018-01-08T12:26:48.703Z,0.91
2018-01-08T12:28:15.726Z,0.94
2018-01-08T12:29:42.791Z,0.94
2018-01-08T12:31:10.084Z,0.96
2018-01-08T12:32:37.868Z,0.98
2018-01-08T12:34:07.099Z,0.98
2018-01-08T12:35:31.302Z,0.99
2018-01-08T12:36:59.471Z,0.99
2018-01-08T12:38:26.673Z,0.98
2018-01-08T12:39:53.633Z,1.00
2018-01-08T12:41:20.703Z,1.03
2018-01-08T12:42:46.695Z,1.04
2018-01-08T12:44:14.781Z,1.06
2018-01-08T12:45:40.870Z,1.09
2018-01-08T12:47:09.249Z,1.09
2018-01-08T12:48:38.301Z,1.08
2018-01-08T12:50:03.417Z,1.05
2018-01-08T12:51:30.673Z,1.01
2018-01-08T12:52:56.672Z,1.01
2018-01-08T12:54:24.661Z,1.00
2018-01-08T12:55:51.838Z,1.00
2018-01-08T12:57:17.940Z,1.00
2018-01-08T12:58:45.914Z,1.02
2018-01-08T13:00:12.975Z,1.04
2018-01-08T13:01:39.912Z,1.07
2018-01-08T13:03:06.405Z,1.12
2018-01-08T13:04:34.189Z,1.13
2018-01-08T13:06:01.156Z,1.14
2018-01-08T13:07:28.238Z,1.16
2018-01-08T13:08:54.397Z,1.21
2018-01-08T13:10:22.488Z,1.24
2018-01-08T13:11:49.717Z,1.27
2018-01-08T13:13:16.724Z,1.30
2018-01-08T13:14:43.848Z,1.34
2018-01-08T13:16:13.100Z,1.40
2018-01-08T13:17:38.225Z,1.45
2018-01-08T13:19:05.530Z,1.48
2018-01-08T13:20:32.654Z,1.55
2018-01-08T13:21:58.796Z,1.61
2018-01-08T13:23:27.077Z,1.64
2018-01-08T13:24:53.820Z,1.61
2018-01-08T13:26:20.818Z,1.60
2018-01-08T13:27:47.633Z,1.63
2018-01-08T13:29:13.929Z,1.68
2018-01-08T13:30:40.997Z,1.77
2018-01-08T13:32:09.454Z,1.79
2018-01-08T13:33:35.276Z,1.85
2018-01-08T13:35:03.469Z,1.86
2018-01-08T13:36:30.590Z,1.83
2018-01-08T13:37:57.887Z,1.82
2018-01-08T13:39:23.926Z,1.82
2018-01-08T13:40:51.648Z,1.83
2018-01-08T13:42:18.940Z,1.89
2018-01-08T13:43:46.013Z,1.95
2018-01-08T13:45:12.974Z,1.98
2018-01-08T13:46:39.376Z,2.02
2018-01-08T13:48:07.354Z,2.09
2018-01-08T13:49:34.549Z,2.16
2018-01-08T13:51:01.671Z,2.13
2018-01-08T13:52:28.919Z,2.10
2018-01-08T13:53:55.167Z,2.04
2018-01-08T13:55:23.173Z,1.97
2018-01-08T13:56:50.300Z,1.91
2018-01-08T13:58:17.405Z,1.86
2018-01-08T13:59:44.594Z,1.76
2018-01-08T14:01:11.725Z,1.68
2018-01-08T14:02:37.926Z,1.62
2018-01-08T14:04:04.936Z,1.57
2018-01-08T14:05:31.912Z,1.50
2018-01-08T14:06:59.309Z,1.44
2018-01-08T14:08:27.255Z,1.39
2018-01-08T14:09:53.346Z,1.33
2018-01-08T14:11:20.418Z,1.27
2018-01-08T14:12:47.687Z,1.21
2018-01-08T14:14:15.278Z,1.15
2018-01-08T14:15:42.768Z,1.10
2018-01-08T14:17:09.964Z,1.04
2018-01-08T14:18:36.372Z,1.00
2018-01-08T14:20:04.233Z,0.93
2018-01-08T14:21:31.278Z,0.89
2018-01-08T14:22:57.524Z,0.84
2018-01-08T14:24:25.530Z,0.79
2018-01-08T14:25:52.495Z,0.76
2018-01-08T14:27:19.482Z,0.75
2018-01-08T14:28:46.551Z,0.74
2018-01-08T14:30:12.686Z,0.79
2018-01-08T14:31:40.613Z,0.86
2018-01-08T14:33:06.952Z,0.88
2018-01-08T14:34:33.914Z,0.86
2018-01-08T14:36:02.075Z,0.85
2018-01-08T14:37:29.152Z,0.88
2018-01-08T14:38:55.249Z,0.87
2018-01-08T14:40:23.274Z,0.86
2018-01-08T14:41:50.282Z,0.87
2018-01-08T14:43:17.448Z,0.89
2018-01-08T14:44:44.607Z,0.87
2018-01-08T14:46:11.801Z,0.79
2018-01-08T14:47:39.049Z,0.73
2018-01-08T14:49:08.259Z,0.67
2018-01-08T14:50:32.380Z,0.63
2018-01-08T14:52:00.510Z,0.64
2018-01-08T14:53:27.823Z,0.62
2018-01-08T14:54:54.752Z,0.61
2018-01-08T14:56:21.678Z,0.56
2018-01-08T14:57:47.593Z,0.55
2018-01-08T14:59:15.516Z,0.55
2018-01-08T15:00:42.035Z,0.59
2018-01-08T15:02:10.121Z,0.56
2018-01-08T15:03:37.626Z,0.51
2018-01-08T15:05:03.354Z,0.51
2018-01-08T15:06:31.334Z,0.49
2018-01-08T15:07:57.702Z,0.45
2018-01-08T15:09:25.756Z,0.37
2018-01-08T15:10:52.987Z,0.34
2018-01-08T15:12:19.906Z,0.32
2018-01-08T15:13:46.867Z,0.26
2018-01-08T15:15:13.973Z,0.22
2018-01-08T15:16:41.265Z,0.20
2018-01-08T15:18:07.338Z,0.17
2018-01-08T15:19:35.676Z,0.13
2018-01-08T15:21:02.580Z,0.11
2018-01-08T15:22:28.660Z,0.09
2018-01-08T15:23:56.720Z,0.12
2018-01-08T15:25:22.424Z,0.10
2018-01-08T15:26:50.480Z,0.09
2018-01-08T15:28:16.698Z,0.06
2018-01-08T15:29:44.826Z,0.04
2018-01-08T15:31:10.901Z,0.02
2018-01-08T15:32:37.982Z,-0.02
2018-01-08T15:34:05.069Z,-0.07
2018-01-08T15:35:32.976Z,-0.10
2018-01-08T15:37:00.108Z,-0.13
2018-01-08T15:38:26.492Z,-0.15
2018-01-08T15:39:54.637Z,-0.16
2018-01-08T15:41:21.748Z,-0.14
2018-01-08T15:42:47.891Z,-0.12
2018-01-08T15:44:14.826Z,-0.12
2018-01-08T15:45:42.755Z,-0.15
2018-01-08T15:47:08.916Z,-0.16
2018-01-08T15:48:37.060Z,-0.17
2018-01-08T15:50:03.243Z,-0.19
2018-01-08T15:51:31.230Z,-0.19
2018-01-08T15:52:57.488Z,-0.18
2018-01-08T15:54:24.450Z,-0.19
2018-01-08T15:55:51.234Z,-0.20
2018-01-08T15:57:18.225Z,-0.22
2018-01-08T15:58:46.140Z,-0.17
2018-01-08T16:00:13.253Z,-0.14
2018-01-08T16:01:39.540Z,-0.14
2018-01-08T16:03:06.750Z,-0.15
2018-01-08T16:04:34.739Z,-0.18
2018-01-08T16:06:00.779Z,-0.20
2018-01-08T16:07:29.069Z,-0.20
2018-01-08T16:08:55.855Z,-0.18
2018-01-08T16:10:21.936Z,-0.21
2018-01-08T16:11:49.984Z,-0.26
2018-01-08T16:13:17.190Z,-0.28
2018-01-08T16:14:44.168Z,-0.29
2018-01-08T16:16:10.345Z,-0.30
2018-01-08T16:17:38.345Z,-0.30
2018-01-08T16:19:04.582Z,-0.30
2018-01-08T16:20:31.578Z,-0.32
2018-01-08T16:21:59.842Z,-0.31
2018-01-08T16:23:25.975Z,-0.30
2018-01-08T16:24:54.040Z,-0.34
2018-01-08T16:26:20.022Z,-0.34
2018-01-08T16:27:47.748Z,-0.37
2018-01-08T16:29:14.988Z,-0.37
2018-01-08T16:30:42.076Z,-0.37
2018-01-08T16:32:08.054Z,-0.34
2018-01-08T16:33:38.351Z,-0.32
2018-01-08T16:35:03.393Z,-0.31
2018-01-08T16:36:29.377Z,-0.29
2018-01-08T16:37:56.295Z,-0.25
2018-01-08T16:39:24.074Z,-0.32
2018-01-08T16:40:50.072Z,-0.38
2018-01-08T16:42:17.072Z,-0.43
2018-01-08T16:43:44.287Z,-0.46
2018-01-08T16:45:11.413Z,-0.49
2018-01-08T16:46:39.399Z,-0.55
2018-01-08T16:48:06.460Z,-0.59
2018-01-08T16:49:32.645Z,-0.63
2018-01-08T16:51:00.483Z,-0.67
2018-01-08T16:52:27.715Z,-0.71
2018-01-08T16:53:54.770Z,-0.76
2018-01-08T16:55:21.761Z,-0.79
2018-01-08T16:56:48.793Z,-0.84
2018-01-08T16:58:14.692Z,-0.88
2018-01-08T16:59:42.928Z,-0.90
2018-01-08T17:01:10.040Z,-0.93
2018-01-08T17:02:37.168Z,-0.93
2018-01-08T17:04:05.228Z,-0.94
2018-01-08T17:05:31.292Z,-0.95
2018-01-08T17:06:58.096Z,-0.95
2018-01-08T17:08:24.202Z,-0.95
2018-01-08T17:09:51.107Z,-0.96
2018-01-08T17:11:19.212Z,-0.96
2018-01-08T17:12:46.085Z,-1.00
2018-01-08T17:14:13.332Z,-1.00
2018-01-08T17:15:40.213Z,-1.00
2018-01-08T17:17:06.438Z,-0.98
2018-01-08T17:18:34.496Z,-0.98
2018-01-08T17:20:01.283Z,-1.00
2018-01-08T17:21:27.306Z,-1.00
2018-01-08T17:22:55.671Z,-0.99
2018-01-08T17:24:22.556Z,-1.00
2018-01-08T17:25:49.477Z,-1.00
2018-01-08T17:27:15.293Z,-1.01
2018-01-08T17:28:43.475Z,-1.03
2018-01-08T17:30:10.646Z,-1.03
2018-01-08T17:31:39.601Z,-1.03
2018-01-08T17:33:04.390Z,-1.05
2018-01-08T17:34:30.647Z,-1.07
2018-01-08T17:35:58.793Z,-1.09
2018-01-08T17:37:25.748Z,-1.11
2018-01-08T17:38:52.750Z,-1.12
2018-01-08T17:40:18.802Z,-1.13
2018-01-08T17:41:46.017Z,-1.13
2018-01-08T17:43:14.091Z,-1.14
2018-01-08T17:44:41.266Z,-1.16
2018-01-08T17:46:07.615Z,-1.15
2018-01-08T17:47:35.427Z,-1.12
2018-01-08T17:49:02.222Z,-1.12
2018-01-08T17:50:28.475Z,-1.13
2018-01-08T17:51:56.653Z,-1.14
2018-01-08T17:53:23.534Z,-1.16
2018-01-08T17:54:50.549Z,-1.19
2018-01-08T17:56:17.620Z,-1.18
2018-01-08T17:57:44.539Z,-1.17
2018-01-08T17:59:11.712Z,-1.18
2018-01-08T18:00:38.119Z,-1.19
2018-01-08T18:02:06.032Z,-1.17
2018-01-08T18:03:31.969Z,-1.18
2018-01-08T18:05:00.037Z,-1.18
2018-01-08T18:06:26.038Z,-1.18
2018-01-08T18:07:53.801Z,-1.19
2018-01-08T18:09:20.013Z,-1.16
2018-01-08T18:10:47.152Z,-1.15
2018-01-08T18:12:14.760Z,-1.15
2018-01-08T18:13:42.036Z,-1.15
2018-01-08T18:15:11.134Z,-1.15
2018-01-08T18:16:38.373Z,-1.14
2018-01-08T18:18:03.267Z,-1.14
2018-01-08T18:19:30.333Z,-1.12
2018-01-08T18:20:57.464Z,-1.13
2018-01-08T18:22:24.342Z,-1.14
2018-01-08T18:23:50.247Z,-1.12
2018-01-08T18:25:17.137Z,-1.13
2018-01-08T18:26:44.262Z,-1.12
2018-01-08T18:28:14.442Z,-1.11
2018-01-08T18:29:41.606Z,-1.11
2018-01-08T18:31:06.670Z,-1.10
2018-01-08T18:32:33.986Z,-1.08
2018-01-08T18:34:00.386Z,-1.06
2018-01-08T18:35:27.380Z,-1.06
2018-01-08T18:36:55.247Z,-1.04
2018-01-08T18:38:22.354Z,-1.02
2018-01-08T18:39:48.333Z,-1.02
2018-01-08T18:41:16.371Z,-1.03
2018-01-08T18:42:42.341Z,-1.03
2018-01-08T18:44:09.675Z,-1.04
2018-01-08T18:45:37.585Z,-1.03
2018-01-08T18:47:04.473Z,-1.01
2018-01-08T18:48:30.654Z,-1.01
2018-01-08T18:49:58.593Z,-1.00
2018-01-08T18:51:25.762Z,-1.01